createdAt,value
2023-06-04T00:01:16.316Z,102038.47
2023-06-04T00:03:20.652Z,102042.09
2023-06-04T00:05:26.512Z,102038.69
2023-06-04T00:07:29.932Z,102040.53
2023-06-04T00:09:36.317Z,102037.13
2023-06-04T00:11:41.225Z,102035.56
2023-06-04T00:13:44.579Z,102033.06
2023-06-04T00:15:48.127Z,102033.13
2023-06-04T00:17:51.761Z,102030.50
2023-06-04T00:19:55.209Z,102029.72
2023-06-04T00:21:58.673Z,102030.66
2023-06-04T00:24:02.566Z,102036.88
2023-06-04T00:26:06.525Z,102030.91
2023-06-04T00:28:11.355Z,102034.47
2023-06-04T00:30:15.508Z,102034.59
2023-06-04T00:32:19.030Z,102034.75
2023-06-04T00:34:22.693Z,102038.28
2023-06-04T00:36:26.137Z,102037.44
2023-06-04T00:38:29.550Z,102043.53
2023-06-04T00:40:32.934Z,102037.44
2023-06-04T00:42:36.354Z,102035.78
2023-06-04T00:44:44.413Z,102035.97
2023-06-04T00:46:48.808Z,102032.63
2023-06-04T00:48:52.223Z,102031.00
2023-06-04T00:50:56.237Z,102027.66
2023-06-04T00:52:59.642Z,102025.19
2023-06-04T00:55:03.576Z,102023.53
2023-06-04T00:57:08.264Z,102021.00
2023-06-04T00:59:11.868Z,102030.75
2023-06-04T01:01:23.552Z,102027.31
2023-06-04T01:03:32.671Z,102037.94
2023-06-04T01:05:43.481Z,102033.00
2023-06-04T01:07:48.154Z,102031.44
2023-06-04T01:09:51.923Z,102030.78
2023-06-04T01:11:55.332Z,102024.88
2023-06-04T01:13:58.717Z,102026.84
2023-06-04T01:16:03.028Z,102034.94
2023-06-04T01:18:08.266Z,102033.34
2023-06-04T01:20:22.363Z,102036.16
2023-06-04T01:22:35.576Z,102041.53
2023-06-04T01:24:43.571Z,102045.19
2023-06-04T01:26:47.516Z,102037.47
2023-06-04T01:28:52.028Z,102044.59
2023-06-04T01:30:57.704Z,102031.72
2023-06-04T01:33:02.310Z,102041.41
2023-06-04T01:35:10.742Z,102027.66
2023-06-04T01:37:14.578Z,102031.25
2023-06-04T01:39:18.294Z,102030.53
2023-06-04T01:41:21.761Z,102032.38
2023-06-04T01:43:25.371Z,102036.81
2023-06-04T01:45:30.277Z,102039.53
2023-06-04T01:47:33.794Z,102038.84
2023-06-04T01:49:38.915Z,102032.88
2023-06-04T01:51:43.901Z,102031.25
2023-06-04T01:53:47.312Z,102040.06
2023-06-04T01:55:51.302Z,102037.56
2023-06-04T01:57:54.721Z,102036.78
2023-06-04T01:59:58.211Z,102039.53
2023-06-04T02:02:03.048Z,102035.19
2023-06-04T02:04:06.766Z,102035.31
2023-06-04T02:06:10.227Z,102031.91
2023-06-04T02:08:20.300Z,102033.78
2023-06-04T02:10:23.961Z,102035.59
2023-06-04T02:12:27.391Z,102034.81
2023-06-04T02:14:30.827Z,102044.47
2023-06-04T02:16:34.268Z,102032.44
2023-06-04T02:18:37.682Z,102030.84
2023-06-04T02:20:41.197Z,102037.91
2023-06-04T02:22:44.702Z,102042.38
2023-06-04T02:24:49.529Z,102043.34
2023-06-04T02:26:53.114Z,102038.28
2023-06-04T02:28:56.518Z,102037.53
2023-06-04T02:30:59.869Z,102038.50
2023-06-04T02:33:03.357Z,102036.81
2023-06-04T02:35:07.527Z,102034.25
2023-06-04T02:37:10.944Z,102034.31
2023-06-04T02:39:14.370Z,102031.81
2023-06-04T02:41:19.163Z,102028.41
2023-06-04T02:43:22.562Z,102026.69
2023-06-04T02:45:26.107Z,102026.81
2023-06-04T02:47:30.009Z,102030.34
2023-06-04T02:49:33.518Z,102027.78
2023-06-04T02:51:36.901Z,102032.28
2023-06-04T02:53:40.331Z,102031.44
2023-06-04T02:55:43.963Z,102034.19
2023-06-04T02:57:48.772Z,102037.69
2023-06-04T02:59:53.152Z,102033.44
2023-06-04T03:01:56.907Z,102025.59
2023-06-04T03:04:00.345Z,102026.50
2023-06-04T03:06:05.976Z,102028.28
2023-06-04T03:08:09.464Z,102032.66
2023-06-04T03:10:13.855Z,102025.72
2023-06-04T03:12:17.408Z,102023.09
2023-06-04T03:14:22.313Z,102029.22
2023-06-04T03:16:26.004Z,102025.78
2023-06-04T03:18:29.582Z,102019.69
2023-06-04T03:20:39.561Z,102020.59
2023-06-04T03:22:43.284Z,102020.59
2023-06-04T03:24:46.907Z,102025.81
2023-06-04T03:26:50.329Z,102016.28
2023-06-04T03:28:54.019Z,102022.41
2023-06-04T03:31:00.298Z,102026.72
2023-06-04T03:33:04.987Z,102028.50
2023-06-04T03:35:09.622Z,102026.72
2023-06-04T03:37:13.085Z,102024.13
2023-06-04T03:39:16.765Z,102018.00
2023-06-04T03:41:21.174Z,102011.00
2023-06-04T03:43:24.647Z,102022.31
2023-06-04T03:45:32.249Z,102019.63
2023-06-04T03:47:37.468Z,102023.94
2023-06-04T03:49:41.857Z,102030.81
2023-06-04T03:51:45.704Z,102018.56
2023-06-04T03:53:50.058Z,102025.50
2023-06-04T03:55:53.427Z,102028.91
2023-06-04T03:57:56.914Z,102029.66
2023-06-04T04:00:00.731Z,102035.56
2023-06-04T04:02:04.240Z,102034.53
2023-06-04T04:04:09.233Z,102037.03
2023-06-04T04:06:13.129Z,102039.41
2023-06-04T04:08:17.556Z,102031.47
2023-06-04T04:10:21.917Z,102037.34
2023-06-04T04:12:25.548Z,102036.31
2023-06-04T04:14:29.310Z,102050.06
2023-06-04T04:16:32.954Z,102042.03
2023-06-04T04:18:37.215Z,102038.44
2023-06-04T04:20:42.156Z,102044.34
2023-06-04T04:22:49.820Z,102042.47
2023-06-04T04:24:54.686Z,102030.88
2023-06-04T04:26:59.906Z,102037.69
2023-06-04T04:29:05.034Z,102036.66
2023-06-04T04:31:10.119Z,102042.56
2023-06-04T04:33:16.854Z,102040.63
2023-06-04T04:35:25.014Z,102043.94
2023-06-04T04:37:32.245Z,102041.97
2023-06-04T04:39:37.864Z,102044.41
2023-06-04T04:41:41.414Z,102048.66
2023-06-04T04:43:44.914Z,102045.00
2023-06-04T04:45:57.091Z,102040.50
2023-06-04T04:48:00.825Z,102048.16
2023-06-04T04:50:04.511Z,102045.31
2023-06-04T04:52:07.989Z,102047.75
2023-06-04T04:54:14.266Z,102051.88
2023-06-04T04:56:18.884Z,102051.69
2023-06-04T04:58:25.737Z,102047.09
2023-06-04T05:00:31.592Z,102041.63
2023-06-04T05:02:35.206Z,102043.28
2023-06-04T05:04:38.776Z,102040.47
2023-06-04T05:06:42.837Z,102044.66
2023-06-04T05:08:46.297Z,102045.25
2023-06-04T05:10:53.044Z,102049.25
2023-06-04T05:12:58.172Z,102049.88
2023-06-04T05:15:08.081Z,102053.88
2023-06-04T05:17:12.248Z,102050.91
2023-06-04T05:19:18.116Z,102049.69
2023-06-04T05:21:21.837Z,102048.50
2023-06-04T05:23:33.478Z,102045.66
2023-06-04T05:25:37.661Z,102046.38
2023-06-04T05:27:43.525Z,102050.56
2023-06-04T05:29:48.505Z,102046.06
2023-06-04T05:31:52.291Z,102049.31
2023-06-04T05:33:58.677Z,102052.59
2023-06-04T05:36:04.551Z,102054.84
2023-06-04T05:38:16.794Z,102052.69
2023-06-04T05:40:20.530Z,102054.97
2023-06-04T05:42:24.818Z,102060.78
2023-06-04T05:44:29.971Z,102056.09
2023-06-04T05:46:33.757Z,102062.63
2023-06-04T05:48:38.123Z,102058.72
2023-06-04T05:50:41.650Z,102063.53
2023-06-04T05:52:45.274Z,102054.41
2023-06-04T05:54:49.976Z,102055.78
2023-06-04T05:56:54.022Z,102056.28
2023-06-04T05:58:57.515Z,102058.53
2023-06-04T06:01:04.161Z,102058.13
2023-06-04T06:03:08.304Z,102058.53
2023-06-04T06:05:18.822Z,102051.94
2023-06-04T06:07:22.686Z,102063.66
2023-06-04T06:09:26.225Z,102069.28
2023-06-04T06:11:29.866Z,102066.16
2023-06-04T06:13:34.182Z,102068.38
2023-06-04T06:15:37.785Z,102066.22
2023-06-04T06:17:42.656Z,102069.38
2023-06-04T06:19:46.181Z,102068.16
2023-06-04T06:21:49.697Z,102067.75
2023-06-04T06:23:54.009Z,102069.13
2023-06-04T06:25:58.168Z,102070.38
2023-06-04T06:28:05.129Z,102069.03
2023-06-04T06:30:11.198Z,102070.22
2023-06-04T06:32:15.057Z,102077.50
2023-06-04T06:34:19.906Z,102072.75
2023-06-04T06:36:23.396Z,102071.41
2023-06-04T06:38:26.792Z,102071.78
2023-06-04T06:40:31.564Z,102069.59
2023-06-04T06:42:35.189Z,102077.13
2023-06-04T06:44:38.570Z,102071.53
2023-06-04T06:46:42.036Z,102074.44
2023-06-04T06:48:46.594Z,102077.41
2023-06-04T06:50:51.845Z,102075.06
2023-06-04T06:52:55.247Z,102071.03
2023-06-04T06:54:58.678Z,102075.75
2023-06-04T06:57:02.113Z,102075.38
2023-06-04T06:59:05.697Z,102078.56
2023-06-04T07:01:09.453Z,102079.91
2023-06-04T07:03:13.223Z,102072.56
2023-06-04T07:05:18.336Z,102077.47
2023-06-04T07:07:23.197Z,102076.03
2023-06-04T07:09:26.673Z,102076.34
2023-06-04T07:11:30.131Z,102079.19
2023-06-04T07:13:36.360Z,102074.16
2023-06-04T07:15:39.865Z,102076.31
2023-06-04T07:17:43.319Z,102076.78
2023-06-04T07:19:46.739Z,102072.78
2023-06-04T07:21:50.183Z,102081.16
2023-06-04T07:23:55.207Z,102080.69
2023-06-04T07:25:58.982Z,102071.53
2023-06-04T07:28:05.130Z,102070.91
2023-06-04T07:30:09.951Z,102070.22
2023-06-04T07:32:13.955Z,102072.38
2023-06-04T07:34:17.609Z,102074.28
2023-06-04T07:36:21.765Z,102074.53
2023-06-04T07:38:25.373Z,102076.44
2023-06-04T07:40:30.391Z,102073.09
2023-06-04T07:42:33.845Z,102070.91
2023-06-04T07:44:39.422Z,102066.97
2023-06-04T07:46:42.957Z,102064.00
2023-06-04T07:48:46.422Z,102061.06
2023-06-04T07:50:49.977Z,102065.06
2023-06-04T07:52:53.431Z,102065.50
2023-06-04T07:54:56.869Z,102064.09
2023-06-04T07:57:01.671Z,102065.28
2023-06-04T07:59:05.098Z,102066.34
2023-06-04T08:01:08.883Z,102066.72
2023-06-04T08:03:12.565Z,102070.53
2023-06-04T08:05:16.129Z,102066.50
2023-06-04T08:07:19.640Z,102071.34
2023-06-04T08:09:23.240Z,102071.78
2023-06-04T08:11:26.828Z,102066.03
2023-06-04T08:13:31.778Z,102069.00
2023-06-04T08:15:35.176Z,102069.16
2023-06-04T08:17:58.626Z,102072.09
2023-06-04T08:20:02.153Z,102066.13
2023-06-04T08:22:18.622Z,102068.81
2023-06-04T08:24:40.089Z,102067.06
2023-06-04T08:27:03.438Z,102063.59
2023-06-04T08:29:12.411Z,102071.81
2023-06-04T08:31:27.675Z,102072.22
2023-06-04T08:33:42.651Z,102067.22
2023-06-04T08:35:50.650Z,102067.47
2023-06-04T08:37:54.094Z,102073.75
2023-06-04T08:39:57.509Z,102066.06
2023-06-04T08:42:03.994Z,102069.06
2023-06-04T08:44:08.135Z,102071.00
2023-06-04T08:46:14.504Z,102062.69
2023-06-04T08:48:20.942Z,102072.56
2023-06-04T08:50:25.606Z,102070.41
2023-06-04T08:52:29.604Z,102064.63
2023-06-04T08:54:33.763Z,102066.81
2023-06-04T08:56:38.071Z,102061.00
2023-06-04T08:58:44.166Z,102069.19
2023-06-04T09:00:47.619Z,102060.75
2023-06-04T09:02:52.671Z,102067.78
2023-06-04T09:04:56.816Z,102069.22
2023-06-04T09:07:04.632Z,102066.09
2023-06-04T09:09:11.911Z,102066.28
2023-06-04T09:11:17.926Z,102072.56
2023-06-04T09:13:25.274Z,102068.16
2023-06-04T09:15:28.641Z,102072.47
2023-06-04T09:17:32.082Z,102080.44
2023-06-04T09:19:36.938Z,102080.63
2023-06-04T09:21:52.053Z,102080.69
2023-06-04T09:23:55.552Z,102075.97
2023-06-04T09:25:58.893Z,102077.53
2023-06-04T09:28:08.506Z,102076.44
2023-06-04T09:30:12.591Z,102078.59
2023-06-04T09:32:16.105Z,102084.38
2023-06-04T09:34:30.081Z,102083.03
2023-06-04T09:36:37.247Z,102087.72
2023-06-04T09:38:43.470Z,102093.31
2023-06-04T09:40:51.801Z,102092.09
2023-06-04T09:42:56.914Z,102080.59
2023-06-04T09:45:02.457Z,102086.91
2023-06-04T09:47:06.576Z,102087.75
2023-06-04T09:49:10.057Z,102086.53
2023-06-04T09:51:16.327Z,102078.16
2023-06-04T09:53:23.992Z,102078.59
2023-06-04T09:55:29.929Z,102080.59
2023-06-04T09:57:37.149Z,102072.91
2023-06-04T09:59:42.804Z,102071.69
2023-06-04T10:01:46.911Z,102070.19
2023-06-04T10:03:53.563Z,102069.63
2023-06-04T10:05:59.279Z,102074.16
2023-06-04T10:08:07.012Z,102075.34
2023-06-04T10:10:17.218Z,102078.19
2023-06-04T10:12:25.841Z,102075.41
2023-06-04T10:14:38.232Z,102070.09
2023-06-04T10:16:43.378Z,102080.75
2023-06-04T10:18:47.229Z,102072.94
2023-06-04T10:20:51.853Z,102070.97
2023-06-04T10:22:56.509Z,102076.03
2023-06-04T10:25:01.278Z,102071.13
2023-06-04T10:27:12.142Z,102065.94
2023-06-04T10:29:16.811Z,102067.06
2023-06-04T10:31:20.797Z,102066.28
2023-06-04T10:33:25.744Z,102065.84
2023-06-04T10:35:33.417Z,102066.69
2023-06-04T10:37:39.408Z,102073.00
2023-06-04T10:39:55.334Z,102060.91
2023-06-04T10:42:03.766Z,102056.72
2023-06-04T10:44:09.303Z,102065.69
2023-06-04T10:46:18.899Z,102067.63
2023-06-04T10:48:27.437Z,102065.38
2023-06-04T10:50:40.508Z,102060.59
2023-06-04T10:52:58.988Z,102060.31
2023-06-04T10:55:18.054Z,102070.72
2023-06-04T10:57:23.430Z,102065.38
2023-06-04T10:59:31.289Z,102071.13
2023-06-04T11:01:39.772Z,102070.53
2023-06-04T11:03:45.646Z,102063.22
2023-06-04T11:05:55.609Z,102065.88
2023-06-04T11:08:06.555Z,102070.94
2023-06-04T11:10:23.786Z,102068.69
2023-06-04T11:12:31.468Z,102067.41
2023-06-04T11:14:39.329Z,102058.16
2023-06-04T11:16:44.714Z,102064.91
2023-06-04T11:19:00.765Z,102065.59
2023-06-04T11:21:09.648Z,102060.94
2023-06-04T11:23:20.177Z,102062.47
2023-06-04T11:25:28.468Z,102064.69
2023-06-04T11:27:40.519Z,102064.13
2023-06-04T11:29:53.744Z,102062.56
2023-06-04T11:32:01.522Z,102062.13
2023-06-04T11:34:07.360Z,102056.44
2023-06-04T11:36:27.109Z,102056.69
2023-06-04T11:38:33.332Z,102051.31
2023-06-04T11:40:44.357Z,102056.59
2023-06-04T11:42:55.988Z,102050.34
2023-06-04T11:45:05.460Z,102052.72
2023-06-04T11:47:15.522Z,102048.09
2023-06-04T11:49:26.686Z,102050.06
2023-06-04T11:51:39.995Z,102051.75
2023-06-04T11:53:48.291Z,102040.78
2023-06-04T11:55:55.657Z,102050.19
2023-06-04T11:58:05.063Z,102051.88
2023-06-04T12:00:17.372Z,102048.84
2023-06-04T12:02:28.712Z,102044.59
2023-06-04T12:04:36.326Z,102049.34
2023-06-04T12:07:02.984Z,102049.88
2023-06-04T12:09:07.053Z,102055.78
2023-06-04T12:11:10.498Z,102058.13
2023-06-04T12:13:13.990Z,102059.47
2023-06-04T12:15:23.619Z,102054.53
2023-06-04T12:17:27.283Z,102048.56
2023-06-04T12:19:31.300Z,102047.97
2023-06-04T12:21:34.829Z,102051.16
2023-06-04T12:23:38.327Z,102045.66
2023-06-04T12:25:42.177Z,102050.03
2023-06-04T12:27:50.153Z,102043.03
2023-06-04T12:30:00.819Z,102049.47
2023-06-04T12:32:11.990Z,102041.50
2023-06-04T12:34:16.476Z,102040.88
2023-06-04T12:36:19.989Z,102038.34
2023-06-04T12:38:23.732Z,102031.66
2023-06-04T12:40:31.368Z,102040.19
2023-06-04T12:42:35.224Z,102035.19
2023-06-04T12:44:38.937Z,102032.91
2023-06-04T12:46:42.438Z,102035.63
2023-06-04T12:48:47.428Z,102033.31
2023-06-04T12:50:50.959Z,102039.19
2023-06-04T12:52:54.433Z,102026.16
2023-06-04T12:54:57.906Z,102025.53
2023-06-04T12:57:02.358Z,102028.41
2023-06-04T12:59:06.505Z,102031.91
2023-06-04T13:01:10.395Z,102028.59
2023-06-04T13:03:14.590Z,102034.31
2023-06-04T13:05:25.571Z,102033.00
2023-06-04T13:07:29.341Z,102035.72
2023-06-04T13:09:34.093Z,102029.72
2023-06-04T13:11:42.891Z,102037.47
2023-06-04T13:13:46.485Z,102033.41
2023-06-04T13:15:50.139Z,102030.03
2023-06-04T13:17:53.705Z,102036.78
2023-06-04T13:19:59.311Z,102043.13
2023-06-04T13:22:04.394Z,102032.72
2023-06-04T13:24:09.024Z,102036.41
2023-06-04T13:26:12.890Z,102035.56
2023-06-04T13:28:18.453Z,102030.31
2023-06-04T13:30:21.968Z,102029.41
2023-06-04T13:32:26.269Z,102022.13
2023-06-04T13:34:29.870Z,102021.53
2023-06-04T13:36:33.504Z,102014.25
2023-06-04T13:38:38.614Z,102021.63
2023-06-04T13:40:42.872Z,102023.59
2023-06-04T13:42:47.864Z,102019.81
2023-06-04T13:44:51.484Z,102021.16
2023-06-04T13:46:55.286Z,102022.66
2023-06-04T13:48:59.013Z,102025.81
2023-06-04T13:51:02.477Z,102019.44
2023-06-04T13:53:06.128Z,102021.44
2023-06-04T13:55:12.312Z,102010.59
2023-06-04T13:57:15.779Z,102015.06
2023-06-04T13:59:19.256Z,102015.00
2023-06-04T14:01:24.671Z,102023.56
2023-06-04T14:03:28.298Z,102013.19
2023-06-04T14:05:32.442Z,102012.19
2023-06-04T14:07:36.295Z,102005.59
2023-06-04T14:09:39.800Z,102010.63
2023-06-04T14:11:46.077Z,102006.63
2023-06-04T14:13:50.608Z,102008.69
2023-06-04T14:15:54.170Z,102002.00
2023-06-04T14:17:58.456Z,102011.41
2023-06-04T14:20:01.958Z,102000.91
2023-06-04T14:22:05.972Z,102002.09
2023-06-04T14:24:11.151Z,101990.66
2023-06-04T14:26:15.344Z,101997.94
2023-06-04T14:28:22.094Z,101992.91
2023-06-04T14:30:25.687Z,101994.75
2023-06-04T14:32:29.212Z,102000.34
2023-06-04T14:34:33.235Z,101995.50
2023-06-04T14:36:37.206Z,102007.81
2023-06-04T14:38:41.091Z,101997.69
2023-06-04T14:40:47.562Z,101989.97
2023-06-04T14:42:52.086Z,101992.16
2023-06-04T14:44:57.149Z,101989.91
2023-06-04T14:47:01.461Z,101999.38
2023-06-04T14:49:04.957Z,101990.38
2023-06-04T14:51:09.068Z,101989.47
2023-06-04T14:53:13.602Z,101992.03
2023-06-04T14:55:17.206Z,101991.56
2023-06-04T14:57:20.740Z,102001.06
2023-06-04T14:59:24.467Z,101991.94
2023-06-04T15:01:29.771Z,101991.13
2023-06-04T15:03:33.482Z,101984.31
2023-06-04T15:05:37.980Z,101989.81
2023-06-04T15:07:41.492Z,101986.41
2023-06-04T15:09:44.935Z,101988.72
2023-06-04T15:11:48.418Z,101985.09
2023-06-04T15:13:51.895Z,101984.19
2023-06-04T15:15:55.368Z,101989.00
2023-06-04T15:18:00.303Z,101985.25
2023-06-04T15:20:04.507Z,101999.22
2023-06-04T15:22:07.948Z,101994.59
2023-06-04T15:24:11.446Z,101991.50
2023-06-04T15:26:15.070Z,101986.41
2023-06-04T15:28:21.812Z,101990.13
2023-06-04T15:30:25.364Z,101985.56
2023-06-04T15:32:28.869Z,101981.38
2023-06-04T15:34:33.953Z,101985.47
2023-06-04T15:36:38.660Z,101981.19
2023-06-04T15:38:42.120Z,101984.38
2023-06-04T15:40:45.639Z,101991.16
2023-06-04T15:42:49.144Z,101986.88
2023-06-04T15:44:52.590Z,101978.22
2023-06-04T15:46:56.101Z,101996.47
2023-06-04T15:48:59.691Z,101992.91
2023-06-04T15:51:04.733Z,101989.94
2023-06-04T15:53:08.141Z,101989.94
2023-06-04T15:55:11.776Z,101988.50
2023-06-04T15:57:15.436Z,101986.53
2023-06-04T15:59:18.952Z,101981.28
2023-06-04T16:01:22.818Z,101995.19
2023-06-04T16:03:26.298Z,101993.34
2023-06-04T16:05:29.861Z,101995.25
2023-06-04T16:07:35.113Z,101988.28
2023-06-04T16:09:38.683Z,101993.72
2023-06-04T16:11:42.155Z,101990.81
2023-06-04T16:13:45.924Z,101994.66
2023-06-04T16:15:49.465Z,101996.00
2023-06-04T16:17:53.163Z,101982.44
2023-06-04T16:19:56.669Z,101984.44
2023-06-04T16:22:00.332Z,101988.06
2023-06-04T16:24:05.493Z,101982.47
2023-06-04T16:26:10.055Z,101983.00
2023-06-04T16:28:13.603Z,101985.34
2023-06-04T16:30:17.255Z,101980.44
2023-06-04T16:32:20.706Z,101978.56
2023-06-04T16:34:24.259Z,101974.69
2023-06-04T16:36:27.916Z,101965.13
2023-06-04T16:38:31.400Z,101973.44
2023-06-04T16:40:36.338Z,101960.66
2023-06-04T16:42:39.927Z,101973.13
2023-06-04T16:44:43.366Z,101969.47
2023-06-04T16:46:47.001Z,101969.22
2023-06-04T16:48:50.863Z,101970.94
2023-06-04T16:50:56.782Z,101969.31
2023-06-04T16:53:00.394Z,101963.56
2023-06-04T16:55:03.972Z,101979.22
2023-06-04T16:57:08.964Z,101967.19
2023-06-04T16:59:12.867Z,101977.81
2023-06-04T17:01:16.552Z,101970.38
2023-06-04T17:03:20.265Z,101973.31
2023-06-04T17:05:25.445Z,101975.00
2023-06-04T17:07:30.692Z,101980.91
2023-06-04T17:09:34.834Z,101978.38
2023-06-04T17:11:40.023Z,101976.13
2023-06-04T17:13:45.034Z,101978.66
2023-06-04T17:15:48.511Z,101978.66
2023-06-04T17:17:52.111Z,101976.97
2023-06-04T17:19:55.607Z,101977.25
2023-06-04T17:21:58.959Z,101973.91
2023-06-04T17:24:03.623Z,101975.88
2023-06-04T17:26:07.871Z,101973.91
2023-06-04T17:28:11.487Z,101973.91
2023-06-04T17:30:16.443Z,101982.19
2023-06-04T17:32:19.917Z,101985.09
2023-06-04T17:34:23.394Z,101975.56
2023-06-04T17:36:26.980Z,101981.94
2023-06-04T17:38:30.637Z,101975.06
2023-06-04T17:40:34.058Z,101974.16
2023-06-04T17:42:37.505Z,101977.50
2023-06-04T17:44:41.014Z,101978.19
2023-06-04T17:46:46.367Z,101980.41
2023-06-04T17:48:49.827Z,101985.28
2023-06-04T17:50:53.256Z,101983.16
2023-06-04T17:52:58.717Z,101987.03
2023-06-04T17:55:04.364Z,101990.97
2023-06-04T17:57:07.909Z,101985.91
2023-06-04T17:59:11.399Z,101982.78
2023-06-04T18:01:14.826Z,101993.94
2023-06-04T18:03:19.821Z,101983.97
2023-06-04T18:05:23.393Z,101983.63
2023-06-04T18:07:26.840Z,101981.50
2023-06-04T18:09:30.347Z,101988.41
2023-06-04T18:11:33.854Z,101987.13
2023-06-04T18:13:37.334Z,101981.50
2023-06-04T18:15:40.844Z,101993.47
2023-06-04T18:17:44.522Z,101986.00
2023-06-04T18:19:50.103Z,101982.28
2023-06-04T18:21:53.546Z,101985.59
2023-06-04T18:23:58.045Z,101989.00
2023-06-04T18:26:02.400Z,101992.16
2023-06-04T18:28:05.871Z,101986.84
2023-06-04T18:30:10.602Z,101990.47
2023-06-04T18:32:14.093Z,101998.25
2023-06-04T18:34:21.661Z,101995.56
2023-06-04T18:36:26.554Z,101993.19
2023-06-04T18:38:29.948Z,101988.63
2023-06-04T18:40:33.376Z,101991.88
2023-06-04T18:42:36.722Z,101992.97
2023-06-04T18:44:40.276Z,102004.09
2023-06-04T18:46:43.778Z,102001.19
2023-06-04T18:48:48.100Z,102008.91
2023-06-04T18:50:51.638Z,101992.88
2023-06-04T18:52:56.671Z,101997.81
2023-06-04T18:55:00.158Z,102000.94
2023-06-04T18:57:03.665Z,102001.41
2023-06-04T18:59:07.140Z,101994.97
2023-06-04T19:01:10.683Z,102004.47
2023-06-04T19:03:14.226Z,101998.91
2023-06-04T19:05:18.554Z,102007.34
2023-06-04T19:07:22.120Z,102004.31
2023-06-04T19:09:26.958Z,102002.22
2023-06-04T19:11:30.937Z,102006.28
2023-06-04T19:13:34.405Z,102001.72
2023-06-04T19:15:37.802Z,102012.88
2023-06-04T19:17:42.760Z,102017.03
2023-06-04T19:19:46.434Z,102014.13
2023-06-04T19:21:53.056Z,102009.50
2023-06-04T19:23:56.999Z,102015.22
2023-06-04T19:26:01.988Z,102020.97
2023-06-04T19:28:06.773Z,102022.25
2023-06-04T19:30:11.781Z,102022.56
2023-06-04T19:32:15.296Z,102033.47
2023-06-04T19:34:18.706Z,102026.06
2023-06-04T19:36:22.150Z,102031.81
2023-06-04T19:38:25.575Z,102033.09
2023-06-04T19:40:28.971Z,102033.63
2023-06-04T19:42:33.793Z,102035.00
2023-06-04T19:44:37.205Z,102040.00
2023-06-04T19:46:40.634Z,102034.41
2023-06-04T19:48:44.105Z,102041.25
2023-06-04T19:50:47.561Z,102035.69
2023-06-04T19:52:52.131Z,102038.00
2023-06-04T19:54:55.531Z,102043.69
2023-06-04T19:56:58.916Z,102046.03
2023-06-04T19:59:03.751Z,102048.28
2023-06-04T20:01:07.221Z,102048.69
2023-06-04T20:03:10.812Z,102049.09
2023-06-04T20:05:16.086Z,102045.09
2023-06-04T20:07:19.531Z,102047.19
2023-06-04T20:09:23.893Z,102051.81
2023-06-04T20:11:27.421Z,102058.25
2023-06-04T20:13:30.891Z,102047.97
2023-06-04T20:15:35.771Z,102043.00
2023-06-04T20:17:39.191Z,102054.75
2023-06-04T20:19:42.737Z,102054.19
2023-06-04T20:21:46.151Z,102058.91
2023-06-04T20:23:53.529Z,102056.56
2023-06-04T20:26:00.049Z,102056.94
2023-06-04T20:28:03.645Z,102065.19
2023-06-04T20:30:08.625Z,102056.81
2023-06-04T20:32:13.459Z,102064.25
2023-06-04T20:34:16.977Z,102054.00
2023-06-04T20:36:20.473Z,102058.59
2023-06-04T20:38:23.938Z,102059.78
2023-06-04T20:40:27.318Z,102066.19
2023-06-04T20:42:30.719Z,102067.31
2023-06-04T20:44:34.699Z,102071.06
2023-06-04T20:46:38.330Z,102069.53
2023-06-04T20:48:43.589Z,102072.38
2023-06-04T20:50:48.419Z,102084.97
2023-06-04T20:52:52.035Z,102082.75
2023-06-04T20:54:55.648Z,102080.38
2023-06-04T20:56:59.180Z,102089.41
2023-06-04T20:59:02.570Z,102076.50
2023-06-04T21:01:06.064Z,102086.28
2023-06-04T21:03:09.615Z,102090.06
2023-06-04T21:05:14.524Z,102088.47
2023-06-04T21:07:18.448Z,102091.38
2023-06-04T21:09:22.004Z,102095.16
2023-06-04T21:11:25.376Z,102088.34
2023-06-04T21:13:28.888Z,102092.09
2023-06-04T21:15:32.278Z,102087.19
2023-06-04T21:17:35.860Z,102094.34
2023-06-04T21:19:39.407Z,102089.47
2023-06-04T21:21:44.305Z,102087.94
2023-06-04T21:23:47.802Z,102089.03
2023-06-04T21:25:51.686Z,102087.63
2023-06-04T21:27:55.083Z,102087.88
2023-06-04T21:29:58.557Z,102089.03
2023-06-04T21:32:02.099Z,102096.34
2023-06-04T21:34:05.911Z,102093.13
2023-06-04T21:36:09.335Z,102100.41
2023-06-04T21:38:14.302Z,102102.47
2023-06-04T21:40:17.769Z,102093.06
2023-06-04T21:42:21.197Z,102104.69
2023-06-04T21:44:25.273Z,102103.31
2023-06-04T21:46:29.502Z,102100.00
2023-06-04T21:48:32.931Z,102099.31
2023-06-04T21:50:36.385Z,102103.97
2023-06-04T21:52:40.084Z,102098.91
2023-06-04T21:54:45.029Z,102098.31
2023-06-04T21:56:48.721Z,102102.91
2023-06-04T21:58:52.221Z,102102.91
2023-06-04T22:00:56.063Z,102098.66
2023-06-04T22:02:59.791Z,102097.88
2023-06-04T22:05:03.359Z,102105.88
2023-06-04T22:07:06.932Z,102105.19
2023-06-04T22:09:10.420Z,102107.88
2023-06-04T22:11:15.317Z,102109.84
2023-06-04T22:13:18.710Z,102117.91
2023-06-04T22:15:22.413Z,102107.56
2023-06-04T22:17:25.890Z,102114.69
2023-06-04T22:19:29.308Z,102117.47
2023-06-04T22:21:32.758Z,102108.06
2023-06-04T22:23:36.569Z,102120.34
2023-06-04T22:25:40.041Z,102117.03
2023-06-04T22:27:45.154Z,102109.31
2023-06-04T22:29:48.722Z,102110.22
2023-06-04T22:31:52.175Z,102110.41
2023-06-04T22:33:55.718Z,102111.44
2023-06-04T22:35:59.209Z,102109.81
2023-06-04T22:38:02.566Z,102113.44
2023-06-04T22:40:07.404Z,102115.41
2023-06-04T22:42:11.013Z,102105.13
2023-06-04T22:44:16.306Z,102107.06
2023-06-04T22:46:19.861Z,102104.59
2023-06-04T22:48:23.433Z,102111.88
2023-06-04T22:50:27.926Z,102115.69
2023-06-04T22:52:31.783Z,102116.75
2023-06-04T22:54:35.356Z,102119.63
2023-06-04T22:56:38.745Z,102114.53
2023-06-04T22:58:42.398Z,102114.66
2023-06-04T23:00:50.328Z,102106.09
2023-06-04T23:02:54.132Z,102108.91
2023-06-04T23:04:57.712Z,102108.22
2023-06-04T23:07:01.221Z,102108.34
2023-06-04T23:09:04.914Z,102107.66
2023-06-04T23:11:08.837Z,102109.59
2023-06-04T23:13:12.582Z,102107.13
2023-06-04T23:15:22.540Z,102110.78
2023-06-04T23:17:27.695Z,102113.50
2023-06-04T23:19:31.229Z,102112.81
2023-06-04T23:21:34.752Z,102112.03
2023-06-04T23:23:38.302Z,102120.06
2023-06-04T23:25:41.767Z,102120.22
2023-06-04T23:27:45.240Z,102117.75
2023-06-04T23:29:48.772Z,102120.53
2023-06-04T23:31:52.376Z,102121.50
2023-06-04T23:33:57.342Z,102117.25
2023-06-04T23:36:00.973Z,102119.09
2023-06-04T23:38:04.520Z,102130.59
2023-06-04T23:40:09.444Z,102120.28
2023-06-04T23:42:12.997Z,102119.56
2023-06-04T23:44:18.348Z,102121.44
2023-06-04T23:46:23.345Z,102123.34